sensor_id;sensor_type;location;lat;lon;timestamp;P1;durP1;ratioP1;P2;durP2;ratioP2
50681;SDS011;36779;52.168;20.878;2023-07-08T00:01:47;5.50;;;3.00;;
50681;SDS011;36779;52.168;20.878;2023-07-08T00:04:17;3.50;;;2.30;;
50681;SDS011;36779;52.168;20.878;2023-07-08T00:06:47;6.10;;;2.90;;
50681;SDS011;36779;52.168;20.878;2023-07-08T00:09:17;5.10;;;3.10;;
50681;SDS011;36779;52.168;20.878;2023-07-08T00:11:46;4.40;;;2.70;;
50681;SDS011;36779;52.168;20.878;2023-07-08T00:14:14;6.10;;;3.00;;
50681;SDS011;36779;52.168;20.878;2023-07-08T00:16:43;7.60;;;3.20;;
50681;SDS011;36779;52.168;20.878;2023-07-08T00:19:12;6.50;;;3.40;;
50681;SDS011;36779;52.168;20.878;2023-07-08T00:21:46;6.80;;;3.60;;
50681;SDS011;36779;52.168;20.878;2023-07-08T00:24:17;3.90;;;3.20;;
50681;SDS011;36779;52.168;20.878;2023-07-08T00:26:47;4.50;;;3.30;;
50681;SDS011;36779;52.168;20.878;2023-07-08T00:29:22;9.20;;;3.40;;
50681;SDS011;36779;52.168;20.878;2023-07-08T00:31:54;6.40;;;3.50;;
50681;SDS011;36779;52.168;20.878;2023-07-08T00:34:24;6.60;;;3.50;;
50681;SDS011;36779;52.168;20.878;2023-07-08T00:36:52;4.30;;;3.00;;
50681;SDS011;36779;52.168;20.878;2023-07-08T00:39:21;3.70;;;2.80;;
50681;SDS011;36779;52.168;20.878;2023-07-08T00:41:50;5.30;;;3.60;;
50681;SDS011;36779;52.168;20.878;2023-07-08T00:44:21;7.10;;;3.30;;
50681;SDS011;36779;52.168;20.878;2023-07-08T00:46:58;5.80;;;3.70;;
50681;SDS011;36779;52.168;20.878;2023-07-08T00:49:34;5.90;;;3.30;;
50681;SDS011;36779;52.168;20.878;2023-07-08T00:52:16;5.60;;;3.20;;
50681;SDS011;36779;52.168;20.878;2023-07-08T00:54:49;5.10;;;3.20;;
50681;SDS011;36779;52.168;20.878;2023-07-08T00:57:19;5.80;;;3.00;;
50681;SDS011;36779;52.168;20.878;2023-07-08T00:59:53;4.80;;;3.10;;
50681;SDS011;36779;52.168;20.878;2023-07-08T01:02:25;7.30;;;3.20;;
50681;SDS011;36779;52.168;20.878;2023-07-08T01:05:03;4.50;;;3.10;;
50681;SDS011;36779;52.168;20.878;2023-07-08T01:07:39;6.60;;;3.40;;
50681;SDS011;36779;52.168;20.878;2023-07-08T01:10:12;3.60;;;2.70;;
50681;SDS011;36779;52.168;20.878;2023-07-08T01:12:46;5.80;;;3.40;;
50681;SDS011;36779;52.168;20.878;2023-07-08T01:15:17;6.50;;;3.80;;
50681;SDS011;36779;52.168;20.878;2023-07-08T01:17:48;6.40;;;3.60;;
50681;SDS011;36779;52.168;20.878;2023-07-08T01:20:21;4.90;;;3.20;;
50681;SDS011;36779;52.168;20.878;2023-07-08T01:22:50;8.20;;;3.50;;
50681;SDS011;36779;52.168;20.878;2023-07-08T01:25:18;6.30;;;3.50;;
50681;SDS011;36779;52.168;20.878;2023-07-08T01:27:49;6.10;;;3.80;;
50681;SDS011;36779;52.168;20.878;2023-07-08T01:30:24;5.10;;;3.60;;
50681;SDS011;36779;52.168;20.878;2023-07-08T01:32:55;6.50;;;3.40;;
50681;SDS011;36779;52.168;20.878;2023-07-08T01:35:29;7.00;;;3.70;;
50681;SDS011;36779;52.168;20.878;2023-07-08T01:37:59;5.70;;;3.40;;
50681;SDS011;36779;52.168;20.878;2023-07-08T01:40:32;5.30;;;3.30;;
50681;SDS011;36779;52.168;20.878;2023-07-08T01:43:02;5.70;;;3.70;;
50681;SDS011;36779;52.168;20.878;2023-07-08T01:45:37;5.20;;;3.00;;
50681;SDS011;36779;52.168;20.878;2023-07-08T01:48:10;8.40;;;3.30;;
50681;SDS011;36779;52.168;20.878;2023-07-08T01:50:50;4.40;;;3.10;;
50681;SDS011;36779;52.168;20.878;2023-07-08T01:53:27;5.20;;;3.30;;
50681;SDS011;36779;52.168;20.878;2023-07-08T01:55:59;6.20;;;3.30;;
50681;SDS011;36779;52.168;20.878;2023-07-08T01:58:33;4.30;;;3.00;;
50681;SDS011;36779;52.168;20.878;2023-07-08T02:01:02;6.30;;;3.30;;
50681;SDS011;36779;52.168;20.878;2023-07-08T02:03:34;5.00;;;3.40;;
50681;SDS011;36779;52.168;20.878;2023-07-08T02:06:05;6.30;;;3.50;;
50681;SDS011;36779;52.168;20.878;2023-07-08T02:08:37;6.10;;;3.60;;
50681;SDS011;36779;52.168;20.878;2023-07-08T02:11:05;6.30;;;3.70;;
50681;SDS011;36779;52.168;20.878;2023-07-08T02:13:34;4.60;;;3.10;;
50681;SDS011;36779;52.168;20.878;2023-07-08T02:16:06;6.60;;;3.70;;
50681;SDS011;36779;52.168;20.878;2023-07-08T02:18:35;10.90;;;3.80;;
50681;SDS011;36779;52.168;20.878;2023-07-08T02:21:07;8.00;;;3.50;;
50681;SDS011;36779;52.168;20.878;2023-07-08T02:23:36;5.90;;;3.90;;
50681;SDS011;36779;52.168;20.878;2023-07-08T02:26:07;8.30;;;3.70;;
50681;SDS011;36779;52.168;20.878;2023-07-08T02:28:35;8.10;;;4.20;;
50681;SDS011;36779;52.168;20.878;2023-07-08T02:31:07;7.80;;;4.10;;
50681;SDS011;36779;52.168;20.878;2023-07-08T02:33:36;8.50;;;4.20;;
50681;SDS011;36779;52.168;20.878;2023-07-08T02:36:07;4.60;;;3.30;;
50681;SDS011;36779;52.168;20.878;2023-07-08T02:38:36;5.30;;;3.50;;
50681;SDS011;36779;52.168;20.878;2023-07-08T02:41:05;7.60;;;3.70;;
50681;SDS011;36779;52.168;20.878;2023-07-08T02:43:33;6.10;;;3.40;;
50681;SDS011;36779;52.168;20.878;2023-07-08T02:46:03;9.10;;;4.00;;
50681;SDS011;36779;52.168;20.878;2023-07-08T02:48:31;5.80;;;3.90;;
50681;SDS011;36779;52.168;20.878;2023-07-08T02:51:00;6.80;;;3.40;;
50681;SDS011;36779;52.168;20.878;2023-07-08T02:53:31;9.00;;;3.80;;
50681;SDS011;36779;52.168;20.878;2023-07-08T02:56:00;5.30;;;3.50;;
50681;SDS011;36779;52.168;20.878;2023-07-08T02:58:28;5.30;;;3.60;;
50681;SDS011;36779;52.168;20.878;2023-07-08T03:00:57;7.10;;;3.70;;
50681;SDS011;36779;52.168;20.878;2023-07-08T03:03:28;6.40;;;3.80;;
50681;SDS011;36779;52.168;20.878;2023-07-08T03:05:59;5.70;;;3.50;;
50681;SDS011;36779;52.168;20.878;2023-07-08T03:08:31;5.80;;;3.30;;
50681;SDS011;36779;52.168;20.878;2023-07-08T03:11:00;7.30;;;4.00;;
50681;SDS011;36779;52.168;20.878;2023-07-08T03:13:32;8.30;;;4.10;;
50681;SDS011;36779;52.168;20.878;2023-07-08T03:16:07;7.40;;;4.20;;
50681;SDS011;36779;52.168;20.878;2023-07-08T03:18:39;4.70;;;3.40;;
50681;SDS011;36779;52.168;20.878;2023-07-08T03:21:15;5.60;;;3.60;;
50681;SDS011;36779;52.168;20.878;2023-07-08T03:23:46;8.00;;;3.80;;
50681;SDS011;36779;52.168;20.878;2023-07-08T03:26:19;8.00;;;4.20;;
50681;SDS011;36779;52.168;20.878;2023-07-08T03:28:52;8.50;;;4.10;;
50681;SDS011;36779;52.168;20.878;2023-07-08T03:31:21;7.60;;;4.20;;
50681;SDS011;36779;52.168;20.878;2023-07-08T03:33:55;10.80;;;4.20;;
50681;SDS011;36779;52.168;20.878;2023-07-08T03:36:25;5.60;;;3.80;;
50681;SDS011;36779;52.168;20.878;2023-07-08T03:38:57;7.80;;;4.00;;
50681;SDS011;36779;52.168;20.878;2023-07-08T03:41:28;6.20;;;3.90;;
50681;SDS011;36779;52.168;20.878;2023-07-08T03:43:58;7.40;;;4.20;;
50681;SDS011;36779;52.168;20.878;2023-07-08T03:46:28;7.60;;;3.70;;
50681;SDS011;36779;52.168;20.878;2023-07-08T03:48:58;7.80;;;3.70;;
50681;SDS011;36779;52.168;20.878;2023-07-08T03:51:28;10.20;;;4.30;;
50681;SDS011;36779;52.168;20.878;2023-07-08T03:54:00;9.30;;;4.50;;
50681;SDS011;36779;52.168;20.878;2023-07-08T03:56:34;6.10;;;3.80;;
50681;SDS011;36779;52.168;20.878;2023-07-08T03:59:05;7.70;;;4.30;;
50681;SDS011;36779;52.168;20.878;2023-07-08T04:01:34;8.20;;;4.40;;
50681;SDS011;36779;52.168;20.878;2023-07-08T04:04:10;6.60;;;4.30;;
50681;SDS011;36779;52.168;20.878;2023-07-08T04:06:42;8.10;;;4.80;;
50681;SDS011;36779;52.168;20.878;2023-07-08T04:09:13;7.60;;;4.70;;
50681;SDS011;36779;52.168;20.878;2023-07-08T04:11:41;9.20;;;4.60;;
50681;SDS011;36779;52.168;20.878;2023-07-08T04:14:10;7.60;;;4.70;;
50681;SDS011;36779;52.168;20.878;2023-07-08T04:16:46;7.90;;;4.30;;
50681;SDS011;36779;52.168;20.878;2023-07-08T04:19:18;8.00;;;4.80;;
50681;SDS011;36779;52.168;20.878;2023-07-08T04:21:47;7.80;;;4.70;;
50681;SDS011;36779;52.168;20.878;2023-07-08T04:24:16;7.30;;;5.00;;
50681;SDS011;36779;52.168;20.878;2023-07-08T04:26:46;9.10;;;5.00;;
50681;SDS011;36779;52.168;20.878;2023-07-08T04:29:21;11.70;;;5.30;;
50681;SDS011;36779;52.168;20.878;2023-07-08T04:31:50;8.00;;;4.90;;
50681;SDS011;36779;52.168;20.878;2023-07-08T04:34:19;9.40;;;5.40;;
50681;SDS011;36779;52.168;20.878;2023-07-08T04:36:48;10.70;;;5.50;;
50681;SDS011;36779;52.168;20.878;2023-07-08T04:39:16;7.80;;;4.30;;
50681;SDS011;36779;52.168;20.878;2023-07-08T04:41:45;9.30;;;5.50;;
50681;SDS011;36779;52.168;20.878;2023-07-08T04:44:16;11.40;;;5.20;;
50681;SDS011;36779;52.168;20.878;2023-07-08T04:46:47;7.40;;;4.90;;
50681;SDS011;36779;52.168;20.878;2023-07-08T04:49:20;11.20;;;5.30;;
50681;SDS011;36779;52.168;20.878;2023-07-08T04:51:51;8.70;;;5.10;;
50681;SDS011;36779;52.168;20.878;2023-07-08T04:54:20;8.20;;;5.40;;
50681;SDS011;36779;52.168;20.878;2023-07-08T04:56:49;9.50;;;6.30;;
50681;SDS011;36779;52.168;20.878;2023-07-08T04:59:21;10.10;;;6.00;;
50681;SDS011;36779;52.168;20.878;2023-07-08T05:01:52;7.80;;;6.30;;
50681;SDS011;36779;52.168;20.878;2023-07-08T05:04:21;9.60;;;6.40;;
50681;SDS011;36779;52.168;20.878;2023-07-08T05:06:50;9.60;;;6.30;;
50681;SDS011;36779;52.168;20.878;2023-07-08T05:09:20;6.90;;;5.50;;
50681;SDS011;36779;52.168;20.878;2023-07-08T05:11:53;7.70;;;5.40;;
50681;SDS011;36779;52.168;20.878;2023-07-08T05:14:21;7.50;;;5.00;;
50681;SDS011;36779;52.168;20.878;2023-07-08T05:16:51;6.30;;;5.00;;
50681;SDS011;36779;52.168;20.878;2023-07-08T05:19:19;7.60;;;5.50;;
50681;SDS011;36779;52.168;20.878;2023-07-08T05:21:53;7.20;;;5.30;;
50681;SDS011;36779;52.168;20.878;2023-07-08T05:24:23;9.40;;;5.70;;
50681;SDS011;36779;52.168;20.878;2023-07-08T05:26:53;6.60;;;4.90;;
50681;SDS011;36779;52.168;20.878;2023-07-08T05:29:22;11.30;;;4.70;;
50681;SDS011;36779;52.168;20.878;2023-07-08T05:31:51;6.50;;;4.80;;
50681;SDS011;36779;52.168;20.878;2023-07-08T05:34:22;9.40;;;5.40;;
50681;SDS011;36779;52.168;20.878;2023-07-08T05:36:53;11.80;;;5.60;;
50681;SDS011;36779;52.168;20.878;2023-07-08T05:39:26;10.40;;;5.10;;
50681;SDS011;36779;52.168;20.878;2023-07-08T05:41:56;12.20;;;5.00;;
50681;SDS011;36779;52.168;20.878;2023-07-08T05:44:25;9.40;;;4.30;;
50681;SDS011;36779;52.168;20.878;2023-07-08T05:46:54;10.10;;;4.70;;
50681;SDS011;36779;52.168;20.878;2023-07-08T05:49:22;12.60;;;4.50;;
50681;SDS011;36779;52.168;20.878;2023-07-08T05:51:51;8.10;;;4.10;;
50681;SDS011;36779;52.168;20.878;2023-07-08T05:54:22;6.90;;;4.30;;
50681;SDS011;36779;52.168;20.878;2023-07-08T05:56:53;8.00;;;3.70;;
50681;SDS011;36779;52.168;20.878;2023-07-08T05:59:22;10.80;;;3.70;;
50681;SDS011;36779;52.168;20.878;2023-07-08T06:01:50;5.40;;;3.60;;
50681;SDS011;36779;52.168;20.878;2023-07-08T06:04:19;7.00;;;3.60;;
50681;SDS011;36779;52.168;20.878;2023-07-08T06:06:49;7.00;;;3.20;;
50681;SDS011;36779;52.168;20.878;2023-07-08T06:09:18;4.60;;;2.70;;
50681;SDS011;36779;52.168;20.878;2023-07-08T06:11:47;4.50;;;3.00;;
50681;SDS011;36779;52.168;20.878;2023-07-08T06:14:16;2.50;;;2.30;;
50681;SDS011;36779;52.168;20.878;2023-07-08T06:16:45;8.10;;;2.80;;
50681;SDS011;36779;52.168;20.878;2023-07-08T06:19:15;3.70;;;2.70;;
50681;SDS011;36779;52.168;20.878;2023-07-08T06:21:44;5.20;;;2.70;;
50681;SDS011;36779;52.168;20.878;2023-07-08T06:24:14;5.60;;;2.80;;
50681;SDS011;36779;52.168;20.878;2023-07-08T06:26:44;4.40;;;3.20;;
50681;SDS011;36779;52.168;20.878;2023-07-08T06:29:26;6.50;;;2.80;;
50681;SDS011;36779;52.168;20.878;2023-07-08T06:31:55;3.30;;;2.70;;
50681;SDS011;36779;52.168;20.878;2023-07-08T06:34:23;2.80;;;2.20;;
50681;SDS011;36779;52.168;20.878;2023-07-08T06:36:55;4.50;;;3.00;;
50681;SDS011;36779;52.168;20.878;2023-07-08T06:39:25;4.10;;;2.60;;
50681;SDS011;36779;52.168;20.878;2023-07-08T06:41:54;2.80;;;2.40;;
50681;SDS011;36779;52.168;20.878;2023-07-08T06:44:24;4.80;;;2.40;;
50681;SDS011;36779;52.168;20.878;2023-07-08T06:46:54;3.90;;;2.60;;
50681;SDS011;36779;52.168;20.878;2023-07-08T06:49:23;3.40;;;2.40;;
50681;SDS011;36779;52.168;20.878;2023-07-08T06:51:52;3.50;;;2.50;;
50681;SDS011;36779;52.168;20.878;2023-07-08T06:54:20;7.00;;;2.70;;
50681;SDS011;36779;52.168;20.878;2023-07-08T06:56:50;3.20;;;2.30;;
50681;SDS011;36779;52.168;20.878;2023-07-08T06:59:19;4.80;;;2.40;;
50681;SDS011;36779;52.168;20.878;2023-07-08T07:01:47;5.00;;;2.20;;
50681;SDS011;36779;52.168;20.878;2023-07-08T07:04:19;5.00;;;2.30;;
50681;SDS011;36779;52.168;20.878;2023-07-08T07:06:48;4.80;;;2.00;;
50681;SDS011;36779;52.168;20.878;2023-07-08T07:12:17;2.70;;;1.80;;
50681;SDS011;36779;52.168;20.878;2023-07-08T07:14:46;5.20;;;2.20;;
50681;SDS011;36779;52.168;20.878;2023-07-08T07:17:17;7.20;;;2.50;;
50681;SDS011;36779;52.168;20.878;2023-07-08T07:19:45;5.70;;;2.80;;
50681;SDS011;36779;52.168;20.878;2023-07-08T07:22:15;4.50;;;2.20;;
50681;SDS011;36779;52.168;20.878;2023-07-08T07:24:44;3.60;;;2.40;;
50681;SDS011;36779;52.168;20.878;2023-07-08T07:27:15;3.20;;;2.00;;
50681;SDS011;36779;52.168;20.878;2023-07-08T07:29:45;3.30;;;1.90;;
50681;SDS011;36779;52.168;20.878;2023-07-08T07:32:15;4.60;;;1.70;;
50681;SDS011;36779;52.168;20.878;2023-07-08T07:34:46;4.00;;;2.20;;
50681;SDS011;36779;52.168;20.878;2023-07-08T07:37:16;2.70;;;1.70;;
50681;SDS011;36779;52.168;20.878;2023-07-08T07:39:46;5.10;;;2.00;;
50681;SDS011;36779;52.168;20.878;2023-07-08T07:42:16;5.70;;;1.70;;
50681;SDS011;36779;52.168;20.878;2023-07-08T07:44:46;2.80;;;1.80;;
50681;SDS011;36779;52.168;20.878;2023-07-08T07:47:15;3.00;;;1.30;;
50681;SDS011;36779;52.168;20.878;2023-07-08T07:49:53;2.50;;;1.50;;
50681;SDS011;36779;52.168;20.878;2023-07-08T07:52:26;4.80;;;1.90;;
50681;SDS011;36779;52.168;20.878;2023-07-08T07:54:55;2.40;;;1.50;;
50681;SDS011;36779;52.168;20.878;2023-07-08T07:57:25;4.10;;;1.80;;
50681;SDS011;36779;52.168;20.878;2023-07-08T07:59:54;1.70;;;1.50;;
50681;SDS011;36779;52.168;20.878;2023-07-08T08:02:22;4.20;;;1.90;;
50681;SDS011;36779;52.168;20.878;2023-07-08T08:04:51;4.30;;;1.80;;
50681;SDS011;36779;52.168;20.878;2023-07-08T08:07:20;3.70;;;1.80;;
50681;SDS011;36779;52.168;20.878;2023-07-08T08:09:49;2.00;;;1.60;;
50681;SDS011;36779;52.168;20.878;2023-07-08T08:12:17;3.80;;;1.40;;
50681;SDS011;36779;52.168;20.878;2023-07-08T08:14:46;2.00;;;1.50;;
50681;SDS011;36779;52.168;20.878;2023-07-08T08:17:15;5.80;;;2.00;;
50681;SDS011;36779;52.168;20.878;2023-07-08T08:19:44;6.40;;;2.60;;
50681;SDS011;36779;52.168;20.878;2023-07-08T08:22:13;6.00;;;2.80;;
50681;SDS011;36779;52.168;20.878;2023-07-08T08:24:42;3.60;;;2.20;;
50681;SDS011;36779;52.168;20.878;2023-07-08T08:27:11;4.00;;;2.30;;
50681;SDS011;36779;52.168;20.878;2023-07-08T08:29:41;3.90;;;1.70;;
50681;SDS011;36779;52.168;20.878;2023-07-08T08:32:12;4.20;;;1.70;;
50681;SDS011;36779;52.168;20.878;2023-07-08T08:34:42;3.30;;;1.40;;
50681;SDS011;36779;52.168;20.878;2023-07-08T08:37:12;3.20;;;1.80;;
50681;SDS011;36779;52.168;20.878;2023-07-08T08:39:43;2.90;;;1.30;;
50681;SDS011;36779;52.168;20.878;2023-07-08T08:42:13;2.80;;;1.70;;
50681;SDS011;36779;52.168;20.878;2023-07-08T08:44:48;3.10;;;1.70;;
50681;SDS011;36779;52.168;20.878;2023-07-08T08:47:19;3.40;;;2.00;;
50681;SDS011;36779;52.168;20.878;2023-07-08T08:49:59;2.80;;;1.80;;
50681;SDS011;36779;52.168;20.878;2023-07-08T08:52:33;2.40;;;1.90;;
50681;SDS011;36779;52.168;20.878;2023-07-08T08:55:08;4.60;;;2.10;;
50681;SDS011;36779;52.168;20.878;2023-07-08T08:57:42;3.30;;;1.80;;
50681;SDS011;36779;52.168;20.878;2023-07-08T09:00:24;1.90;;;1.80;;
50681;SDS011;36779;52.168;20.878;2023-07-08T09:02:58;1.80;;;1.60;;
50681;SDS011;36779;52.168;20.878;2023-07-08T09:05:33;2.60;;;1.90;;
50681;SDS011;36779;52.168;20.878;2023-07-08T09:08:05;2.40;;;1.90;;
50681;SDS011;36779;52.168;20.878;2023-07-08T09:10:43;2.30;;;1.90;;
50681;SDS011;36779;52.168;20.878;2023-07-08T09:13:18;3.80;;;2.20;;
50681;SDS011;36779;52.168;20.878;2023-07-08T09:15:53;4.00;;;2.50;;
50681;SDS011;36779;52.168;20.878;2023-07-08T09:18:33;3.20;;;2.40;;
50681;SDS011;36779;52.168;20.878;2023-07-08T09:21:15;8.10;;;3.70;;
50681;SDS011;36779;52.168;20.878;2023-07-08T09:23:52;4.40;;;3.10;;
50681;SDS011;36779;52.168;20.878;2023-07-08T09:26:28;3.80;;;2.60;;
50681;SDS011;36779;52.168;20.878;2023-07-08T09:29:00;3.30;;;2.30;;
50681;SDS011;36779;52.168;20.878;2023-07-08T09:31:36;3.30;;;2.30;;
50681;SDS011;36779;52.168;20.878;2023-07-08T09:34:08;3.00;;;2.00;;
50681;SDS011;36779;52.168;20.878;2023-07-08T09:36:43;3.40;;;2.30;;
50681;SDS011;36779;52.168;20.878;2023-07-08T09:39:15;3.90;;;1.80;;
50681;SDS011;36779;52.168;20.878;2023-07-08T09:41:52;2.60;;;1.90;;
50681;SDS011;36779;52.168;20.878;2023-07-08T09:44:24;2.60;;;1.90;;
50681;SDS011;36779;52.168;20.878;2023-07-08T09:46:57;4.30;;;1.90;;
50681;SDS011;36779;52.168;20.878;2023-07-08T09:49:28;3.10;;;2.20;;
50681;SDS011;36779;52.168;20.878;2023-07-08T09:52:00;1.60;;;1.50;;
50681;SDS011;36779;52.168;20.878;2023-07-08T09:54:31;3.40;;;1.90;;
50681;SDS011;36779;52.168;20.878;2023-07-08T09:57:00;4.30;;;1.70;;
50681;SDS011;36779;52.168;20.878;2023-07-08T09:59:41;3.50;;;2.10;;
50681;SDS011;36779;52.168;20.878;2023-07-08T10:02:27;4.10;;;1.80;;
50681;SDS011;36779;52.168;20.878;2023-07-08T10:04:59;2.40;;;1.90;;
50681;SDS011;36779;52.168;20.878;2023-07-08T10:07:35;3.60;;;1.80;;
50681;SDS011;36779;52.168;20.878;2023-07-08T10:10:08;2.50;;;1.90;;
50681;SDS011;36779;52.168;20.878;2023-07-08T10:12:43;4.10;;;2.20;;
50681;SDS011;36779;52.168;20.878;2023-07-08T10:15:22;5.40;;;2.10;;
50681;SDS011;36779;52.168;20.878;2023-07-08T10:17:57;2.10;;;1.90;;
50681;SDS011;36779;52.168;20.878;2023-07-08T10:20:28;4.10;;;2.90;;
50681;SDS011;36779;52.168;20.878;2023-07-08T10:23:13;6.40;;;2.50;;
50681;SDS011;36779;52.168;20.878;2023-07-08T10:25:53;2.30;;;1.90;;
50681;SDS011;36779;52.168;20.878;2023-07-08T10:28:29;2.60;;;1.70;;
50681;SDS011;36779;52.168;20.878;2023-07-08T10:31:09;2.80;;;2.20;;
50681;SDS011;36779;52.168;20.878;2023-07-08T10:36:49;2.60;;;1.90;;
50681;SDS011;36779;52.168;20.878;2023-07-08T10:39:31;3.50;;;2.00;;
50681;SDS011;36779;52.168;20.878;2023-07-08T10:42:23;2.90;;;1.80;;
50681;SDS011;36779;52.168;20.878;2023-07-08T10:45:07;3.40;;;1.70;;
50681;SDS011;36779;52.168;20.878;2023-07-08T10:47:43;4.80;;;2.00;;
50681;SDS011;36779;52.168;20.878;2023-07-08T10:50:29;4.00;;;1.90;;
50681;SDS011;36779;52.168;20.878;2023-07-08T10:53:21;2.60;;;1.80;;
50681;SDS011;36779;52.168;20.878;2023-07-08T10:56:04;1.60;;;1.50;;
50681;SDS011;36779;52.168;20.878;2023-07-08T10:58:52;2.90;;;1.80;;
50681;SDS011;36779;52.168;20.878;2023-07-08T11:01:37;2.60;;;1.60;;
50681;SDS011;36779;52.168;20.878;2023-07-08T11:04:21;2.50;;;1.90;;
50681;SDS011;36779;52.168;20.878;2023-07-08T11:07:09;4.30;;;1.90;;
50681;SDS011;36779;52.168;20.878;2023-07-08T11:09:46;2.00;;;1.70;;
50681;SDS011;36779;52.168;20.878;2023-07-08T11:12:23;2.20;;;1.60;;
50681;SDS011;36779;52.168;20.878;2023-07-08T11:14:58;2.30;;;2.00;;
50681;SDS011;36779;52.168;20.878;2023-07-08T11:17:34;4.50;;;1.70;;
50681;SDS011;36779;52.168;20.878;2023-07-08T11:20:15;2.40;;;2.00;;
50681;SDS011;36779;52.168;20.878;2023-07-08T11:22:50;3.70;;;1.70;;
50681;SDS011;36779;52.168;20.878;2023-07-08T11:25:26;3.30;;;2.70;;
50681;SDS011;36779;52.168;20.878;2023-07-08T11:27:57;3.00;;;2.00;;
50681;SDS011;36779;52.168;20.878;2023-07-08T11:30:32;3.70;;;2.00;;
50681;SDS011;36779;52.168;20.878;2023-07-08T11:33:10;2.30;;;1.80;;
50681;SDS011;36779;52.168;20.878;2023-07-08T11:35:42;4.70;;;1.70;;
50681;SDS011;36779;52.168;20.878;2023-07-08T11:38:14;2.30;;;1.90;;
50681;SDS011;36779;52.168;20.878;2023-07-08T11:40:52;3.30;;;2.10;;
50681;SDS011;36779;52.168;20.878;2023-07-08T11:43:24;6.00;;;4.60;;
50681;SDS011;36779;52.168;20.878;2023-07-08T11:45:56;2.70;;;2.30;;
50681;SDS011;36779;52.168;20.878;2023-07-08T11:51:05;2.80;;;2.10;;
50681;SDS011;36779;52.168;20.878;2023-07-08T11:53:35;3.30;;;2.00;;
50681;SDS011;36779;52.168;20.878;2023-07-08T11:56:24;3.30;;;2.00;;
50681;SDS011;36779;52.168;20.878;2023-07-08T11:59:05;2.80;;;2.10;;
50681;SDS011;36779;52.168;20.878;2023-07-08T12:01:46;2.00;;;1.90;;
50681;SDS011;36779;52.168;20.878;2023-07-08T12:04:26;2.80;;;1.90;;
50681;SDS011;36779;52.168;20.878;2023-07-08T12:07:09;4.20;;;2.20;;
50681;SDS011;36779;52.168;20.878;2023-07-08T12:09:59;2.20;;;2.00;;
50681;SDS011;36779;52.168;20.878;2023-07-08T12:12:35;3.50;;;1.90;;
50681;SDS011;36779;52.168;20.878;2023-07-08T12:15:14;3.90;;;1.90;;
50681;SDS011;36779;52.168;20.878;2023-07-08T12:17:49;2.90;;;2.20;;
50681;SDS011;36779;52.168;20.878;2023-07-08T12:20:22;2.40;;;1.80;;
50681;SDS011;36779;52.168;20.878;2023-07-08T12:22:54;2.90;;;1.80;;
50681;SDS011;36779;52.168;20.878;2023-07-08T12:25:26;3.10;;;2.40;;
50681;SDS011;36779;52.168;20.878;2023-07-08T12:27:58;3.50;;;2.30;;
50681;SDS011;36779;52.168;20.878;2023-07-08T12:30:29;2.60;;;1.80;;
50681;SDS011;36779;52.168;20.878;2023-07-08T12:33:00;3.70;;;2.00;;
50681;SDS011;36779;52.168;20.878;2023-07-08T12:35:31;3.10;;;2.10;;
50681;SDS011;36779;52.168;20.878;2023-07-08T12:38:01;3.50;;;2.10;;
50681;SDS011;36779;52.168;20.878;2023-07-08T12:40:32;2.60;;;2.10;;
50681;SDS011;36779;52.168;20.878;2023-07-08T12:43:01;3.10;;;2.30;;
50681;SDS011;36779;52.168;20.878;2023-07-08T12:45:31;3.80;;;2.10;;
50681;SDS011;36779;52.168;20.878;2023-07-08T12:48:00;2.90;;;1.90;;
50681;SDS011;36779;52.168;20.878;2023-07-08T12:50:30;2.20;;;1.80;;
50681;SDS011;36779;52.168;20.878;2023-07-08T12:52:58;2.40;;;1.90;;
50681;SDS011;36779;52.168;20.878;2023-07-08T12:55:32;2.40;;;1.80;;
50681;SDS011;36779;52.168;20.878;2023-07-08T12:58:02;2.80;;;1.80;;
50681;SDS011;36779;52.168;20.878;2023-07-08T13:00:33;3.80;;;2.50;;
50681;SDS011;36779;52.168;20.878;2023-07-08T13:03:07;4.20;;;2.60;;
50681;SDS011;36779;52.168;20.878;2023-07-08T13:05:41;2.90;;;2.40;;
50681;SDS011;36779;52.168;20.878;2023-07-08T13:08:12;9.60;;;2.30;;
50681;SDS011;36779;52.168;20.878;2023-07-08T13:10:42;5.10;;;3.10;;
50681;SDS011;36779;52.168;20.878;2023-07-08T13:13:17;2.80;;;2.20;;
50681;SDS011;36779;52.168;20.878;2023-07-08T13:15:50;3.60;;;2.20;;
50681;SDS011;36779;52.168;20.878;2023-07-08T13:18:28;2.60;;;2.30;;
50681;SDS011;36779;52.168;20.878;2023-07-08T13:21:00;4.30;;;2.40;;
50681;SDS011;36779;52.168;20.878;2023-07-08T13:23:32;2.60;;;2.00;;
50681;SDS011;36779;52.168;20.878;2023-07-08T13:26:11;5.30;;;1.90;;
50681;SDS011;36779;52.168;20.878;2023-07-08T13:28:45;2.60;;;2.40;;
50681;SDS011;36779;52.168;20.878;2023-07-08T13:31:15;2.30;;;2.00;;
50681;SDS011;36779;52.168;20.878;2023-07-08T13:33:51;3.20;;;1.90;;
50681;SDS011;36779;52.168;20.878;2023-07-08T13:36:23;5.00;;;2.10;;
50681;SDS011;36779;52.168;20.878;2023-07-08T13:38:55;2.90;;;1.90;;
50681;SDS011;36779;52.168;20.878;2023-07-08T13:41:25;2.20;;;1.90;;
50681;SDS011;36779;52.168;20.878;2023-07-08T13:43:56;5.70;;;2.20;;
50681;SDS011;36779;52.168;20.878;2023-07-08T13:46:36;3.30;;;2.20;;
50681;SDS011;36779;52.168;20.878;2023-07-08T13:49:13;2.10;;;1.90;;
50681;SDS011;36779;52.168;20.878;2023-07-08T13:51:49;3.40;;;2.10;;
50681;SDS011;36779;52.168;20.878;2023-07-08T13:54:22;2.70;;;1.90;;
50681;SDS011;36779;52.168;20.878;2023-07-08T13:57:00;3.60;;;2.30;;
50681;SDS011;36779;52.168;20.878;2023-07-08T13:59:30;3.10;;;1.90;;
50681;SDS011;36779;52.168;20.878;2023-07-08T14:02:01;3.30;;;2.10;;
50681;SDS011;36779;52.168;20.878;2023-07-08T14:04:47;2.80;;;1.90;;
50681;SDS011;36779;52.168;20.878;2023-07-08T14:07:19;3.00;;;2.00;;
50681;SDS011;36779;52.168;20.878;2023-07-08T14:09:52;4.20;;;1.90;;
50681;SDS011;36779;52.168;20.878;2023-07-08T14:12:21;2.90;;;2.00;;
50681;SDS011;36779;52.168;20.878;2023-07-08T14:15:01;3.10;;;2.00;;
50681;SDS011;36779;52.168;20.878;2023-07-08T14:17:32;3.40;;;2.00;;
50681;SDS011;36779;52.168;20.878;2023-07-08T14:20:01;3.50;;;2.00;;
50681;SDS011;36779;52.168;20.878;2023-07-08T14:22:33;4.70;;;1.90;;
50681;SDS011;36779;52.168;20.878;2023-07-08T14:25:09;2.10;;;1.90;;
50681;SDS011;36779;52.168;20.878;2023-07-08T14:27:41;2.80;;;1.90;;
50681;SDS011;36779;52.168;20.878;2023-07-08T14:30:14;2.70;;;2.20;;
50681;SDS011;36779;52.168;20.878;2023-07-08T14:32:44;3.80;;;1.80;;
50681;SDS011;36779;52.168;20.878;2023-07-08T14:35:15;5.90;;;1.90;;
50681;SDS011;36779;52.168;20.878;2023-07-08T14:37:50;3.30;;;2.30;;
50681;SDS011;36779;52.168;20.878;2023-07-08T14:40:22;2.30;;;1.90;;
50681;SDS011;36779;52.168;20.878;2023-07-08T14:42:55;2.20;;;2.00;;
50681;SDS011;36779;52.168;20.878;2023-07-08T14:45:28;3.20;;;2.00;;
50681;SDS011;36779;52.168;20.878;2023-07-08T14:47:59;2.00;;;1.90;;
50681;SDS011;36779;52.168;20.878;2023-07-08T14:50:28;2.20;;;1.90;;
50681;SDS011;36779;52.168;20.878;2023-07-08T14:53:00;4.50;;;2.00;;
50681;SDS011;36779;52.168;20.878;2023-07-08T14:55:29;4.60;;;2.10;;
50681;SDS011;36779;52.168;20.878;2023-07-08T14:58:07;3.60;;;1.90;;
50681;SDS011;36779;52.168;20.878;2023-07-08T15:00:45;5.80;;;2.00;;
50681;SDS011;36779;52.168;20.878;2023-07-08T15:03:14;1.90;;;1.70;;
50681;SDS011;36779;52.168;20.878;2023-07-08T15:05:43;2.70;;;1.90;;
50681;SDS011;36779;52.168;20.878;2023-07-08T15:08:14;2.50;;;1.90;;
50681;SDS011;36779;52.168;20.878;2023-07-08T15:10:44;4.00;;;2.10;;
50681;SDS011;36779;52.168;20.878;2023-07-08T15:13:18;2.70;;;1.90;;